sensor_id;sensor_type;location;lat;lon;timestamp;pressure;altitude;pressure_sealevel;temperature;humidity
71344;BME280;59146;43.850;25.948;2023-04-08T00:01:35;101595.19;;;7.35;61.29
71344;BME280;59146;43.850;25.948;2023-04-08T00:04:00;101592.94;;;7.23;61.36
71344;BME280;59146;43.850;25.948;2023-04-08T00:06:27;101539.97;;;6.99;61.35
71344;BME280;59146;43.850;25.948;2023-04-08T00:08:52;101592.78;;;7.28;61.82
71344;BME280;59146;43.850;25.948;2023-04-08T00:11:17;101585.84;;;7.28;61.66
71344;BME280;59146;43.850;25.948;2023-04-08T00:13:43;101544.28;;;6.99;61.99
71344;BME280;59146;43.850;25.948;2023-04-08T00:16:08;101528.09;;;6.91;62.02
71344;BME280;59146;43.850;25.948;2023-04-08T00:18:35;101560.25;;;6.85;63.66
71344;BME280;59146;43.850;25.948;2023-04-08T00:21:02;101580.97;;;7.17;62.86
71344;BME280;59146;43.850;25.948;2023-04-08T00:23:27;101422.34;;;6.37;62.36
71344;BME280;59146;43.850;25.948;2023-04-08T00:25:53;101527.00;;;6.98;62.43
71344;BME280;59146;43.850;25.948;2023-04-08T00:28:18;101513.38;;;6.90;62.83
71344;BME280;59146;43.850;25.948;2023-04-08T00:30:43;101581.09;;;7.13;63.03
71344;BME280;59146;43.850;25.948;2023-04-08T00:33:09;101599.66;;;7.30;63.33
71344;BME280;59146;43.850;25.948;2023-04-08T00:35:35;101517.66;;;6.92;62.64
71344;BME280;59146;43.850;25.948;2023-04-08T00:38:00;101588.66;;;7.20;63.11
71344;BME280;59146;43.850;25.948;2023-04-08T00:40:26;101539.84;;;6.73;63.71
71344;BME280;59146;43.850;25.948;2023-04-08T00:42:51;101486.91;;;6.48;63.80
71344;BME280;59146;43.850;25.948;2023-04-08T00:45:17;101587.84;;;7.18;63.28
71344;BME280;59146;43.850;25.948;2023-04-08T00:47:42;101584.44;;;7.16;63.59
71344;BME280;59146;43.850;25.948;2023-04-08T00:50:08;101587.41;;;7.04;63.95
71344;BME280;59146;43.850;25.948;2023-04-08T00:52:35;101589.94;;;7.07;64.12
71344;BME280;59146;43.850;25.948;2023-04-08T00:55:00;101569.03;;;6.81;64.10
71344;BME280;59146;43.850;25.948;2023-04-08T00:57:25;101546.03;;;6.69;63.99
71344;BME280;59146;43.850;25.948;2023-04-08T00:59:51;101592.72;;;7.01;64.52
71344;BME280;59146;43.850;25.948;2023-04-08T01:02:33;101540.53;;;6.80;64.57
71344;BME280;59146;43.850;25.948;2023-04-08T01:05:47;101602.94;;;7.06;64.89
71344;BME280;59146;43.850;25.948;2023-04-08T01:07:47;101595.84;;;7.12;64.89
71344;BME280;59146;43.850;25.948;2023-04-08T01:10:20;101573.69;;;7.01;65.32
71344;BME280;59146;43.850;25.948;2023-04-08T01:12:53;101498.72;;;6.58;65.24
71344;BME280;59146;43.850;25.948;2023-04-08T01:15:19;101558.22;;;6.96;65.58
71344;BME280;59146;43.850;25.948;2023-04-08T01:17:45;101524.50;;;6.64;65.77
71344;BME280;59146;43.850;25.948;2023-04-08T01:20:12;101523.38;;;6.74;66.02
71344;BME280;59146;43.850;25.948;2023-04-08T01:25:14;101532.84;;;6.75;65.92
71344;BME280;59146;43.850;25.948;2023-04-08T01:27:42;101506.38;;;6.63;66.06
71344;BME280;59146;43.850;25.948;2023-04-08T01:30:08;101556.66;;;6.91;66.26
71344;BME280;59146;43.850;25.948;2023-04-08T01:32:35;101580.53;;;7.03;65.55
71344;BME280;59146;43.850;25.948;2023-04-08T01:35:02;101583.25;;;6.99;65.65
71344;BME280;59146;43.850;25.948;2023-04-08T01:37:28;101582.97;;;7.08;65.45
71344;BME280;59146;43.850;25.948;2023-04-08T01:39:55;101522.41;;;6.78;65.35
71344;BME280;59146;43.850;25.948;2023-04-08T01:42:24;101503.50;;;6.73;65.01
71344;BME280;59146;43.850;25.948;2023-04-08T01:44:54;101468.75;;;6.48;65.56
71344;BME280;59146;43.850;25.948;2023-04-08T01:47:20;101590.25;;;7.26;65.61
71344;BME280;59146;43.850;25.948;2023-04-08T01:49:47;101414.41;;;6.42;64.40
71344;BME280;59146;43.850;25.948;2023-04-08T01:52:15;101519.63;;;6.84;65.07
71344;BME280;59146;43.850;25.948;2023-04-08T01:54:42;101593.06;;;7.18;65.15
71344;BME280;59146;43.850;25.948;2023-04-08T01:57:11;101579.00;;;7.26;65.11
71344;BME280;59146;43.850;25.948;2023-04-08T01:59:40;101579.91;;;7.25;65.04
71344;BME280;59146;43.850;25.948;2023-04-08T02:02:08;101546.75;;;7.03;65.06
71344;BME280;59146;43.850;25.948;2023-04-08T02:04:34;101579.00;;;7.26;64.46
71344;BME280;59146;43.850;25.948;2023-04-08T02:07:01;101525.50;;;6.89;64.89
71344;BME280;59146;43.850;25.948;2023-04-08T02:09:27;101590.19;;;7.28;65.04
71344;BME280;59146;43.850;25.948;2023-04-08T02:11:52;101580.16;;;7.15;65.14
71344;BME280;59146;43.850;25.948;2023-04-08T02:14:17;101586.22;;;7.16;65.66
71344;BME280;59146;43.850;25.948;2023-04-08T02:16:53;101504.66;;;6.63;65.87
71344;BME280;59146;43.850;25.948;2023-04-08T02:19:28;101552.22;;;6.94;65.95
71344;BME280;59146;43.850;25.948;2023-04-08T02:22:22;101476.53;;;6.48;65.80
71344;BME280;59146;43.850;25.948;2023-04-08T02:24:45;101570.97;;;7.04;66.19
71344;BME280;59146;43.850;25.948;2023-04-08T02:27:11;101574.44;;;7.04;66.68
71344;BME280;59146;43.850;25.948;2023-04-08T02:29:39;101549.81;;;6.88;66.64
71344;BME280;59146;43.850;25.948;2023-04-08T02:32:07;101521.22;;;6.59;66.76
71344;BME280;59146;43.850;25.948;2023-04-08T02:34:36;101562.84;;;6.87;67.13
71344;BME280;59146;43.850;25.948;2023-04-08T02:37:03;101521.09;;;6.64;67.33
71344;BME280;59146;43.850;25.948;2023-04-08T02:39:32;101500.16;;;6.68;66.80
71344;BME280;59146;43.850;25.948;2023-04-08T02:41:57;101580.53;;;7.03;66.67
71344;BME280;59146;43.850;25.948;2023-04-08T02:44:23;101580.97;;;6.88;67.17
71344;BME280;59146;43.850;25.948;2023-04-08T02:46:49;101545.03;;;6.73;67.21
71344;BME280;59146;43.850;25.948;2023-04-08T02:49:14;101422.84;;;5.89;67.99
71344;BME280;59146;43.850;25.948;2023-04-08T02:51:40;101406.69;;;5.78;67.30
71344;BME280;59146;43.850;25.948;2023-04-08T02:54:05;101499.31;;;6.37;67.72
71344;BME280;59146;43.850;25.948;2023-04-08T02:56:31;101535.06;;;6.58;67.45
71344;BME280;59146;43.850;25.948;2023-04-08T02:58:56;101417.31;;;5.69;67.35
71344;BME280;59146;43.850;25.948;2023-04-08T03:01:21;101547.34;;;6.53;67.26
71344;BME280;59146;43.850;25.948;2023-04-08T03:03:47;101501.38;;;6.26;67.18
71344;BME280;59146;43.850;25.948;2023-04-08T03:06:12;101582.50;;;6.65;67.33
71344;BME280;59146;43.850;25.948;2023-04-08T03:08:37;101570.41;;;6.64;67.54
71344;BME280;59146;43.850;25.948;2023-04-08T03:11:03;101562.75;;;6.59;67.47
71344;BME280;59146;43.850;25.948;2023-04-08T03:13:28;101544.88;;;6.49;67.67
71344;BME280;59146;43.850;25.948;2023-04-08T03:15:55;101566.22;;;6.58;67.75
71344;BME280;59146;43.850;25.948;2023-04-08T03:18:21;101575.56;;;6.65;67.31
71344;BME280;59146;43.850;25.948;2023-04-08T03:20:46;101513.44;;;6.27;67.49
71344;BME280;59146;43.850;25.948;2023-04-08T03:23:12;101565.53;;;6.53;67.50
71344;BME280;59146;43.850;25.948;2023-04-08T03:25:37;101505.03;;;6.19;67.53
71344;BME280;59146;43.850;25.948;2023-04-08T03:28:02;101516.03;;;6.27;67.36
71344;BME280;59146;43.850;25.948;2023-04-08T03:30:28;101392.91;;;5.43;67.27
71344;BME280;59146;43.850;25.948;2023-04-08T03:32:53;101584.38;;;6.60;67.46
71344;BME280;59146;43.850;25.948;2023-04-08T03:35:18;101519.84;;;6.14;67.54
71344;BME280;59146;43.850;25.948;2023-04-08T03:37:44;101574.31;;;6.48;67.24
71344;BME280;59146;43.850;25.948;2023-04-08T03:40:11;101588.81;;;6.55;66.87
71344;BME280;59146;43.850;25.948;2023-04-08T03:42:37;101536.69;;;6.62;66.34
71344;BME280;59146;43.850;25.948;2023-04-08T03:45:03;101610.59;;;7.12;65.37
71344;BME280;59146;43.850;25.948;2023-04-08T03:47:29;101514.31;;;6.27;66.29
71344;BME280;59146;43.850;25.948;2023-04-08T03:49:55;101460.63;;;5.99;66.04
71344;BME280;59146;43.850;25.948;2023-04-08T03:52:20;101573.97;;;6.90;65.61
71344;BME280;59146;43.850;25.948;2023-04-08T03:54:46;101589.34;;;6.98;64.74
71344;BME280;59146;43.850;25.948;2023-04-08T03:57:11;101526.59;;;6.53;65.22
71344;BME280;59146;43.850;25.948;2023-04-08T03:59:37;101596.59;;;6.87;65.08
71344;BME280;59146;43.850;25.948;2023-04-08T04:02:03;101590.81;;;7.06;64.68
71344;BME280;59146;43.850;25.948;2023-04-08T04:04:29;101536.88;;;6.87;63.58
71344;BME280;59146;43.850;25.948;2023-04-08T04:06:55;101555.25;;;6.79;63.91
71344;BME280;59146;43.850;25.948;2023-04-08T04:09:20;101581.53;;;6.98;63.30
71344;BME280;59146;43.850;25.948;2023-04-08T04:11:46;101594.50;;;6.99;63.60
71344;BME280;59146;43.850;25.948;2023-04-08T04:14:11;101495.31;;;6.56;63.41
71344;BME280;59146;43.850;25.948;2023-04-08T04:16:36;101617.34;;;7.47;62.49
71344;BME280;59146;43.850;25.948;2023-04-08T04:19:02;101616.41;;;7.20;63.19
71344;BME280;59146;43.850;25.948;2023-04-08T04:21:27;101542.66;;;6.66;63.88
71344;BME280;59146;43.850;25.948;2023-04-08T04:23:53;101627.50;;;6.96;64.45
71344;BME280;59146;43.850;25.948;2023-04-08T04:26:19;101581.31;;;6.76;64.65
71344;BME280;59146;43.850;25.948;2023-04-08T04:28:45;101589.91;;;6.78;64.60
71344;BME280;59146;43.850;25.948;2023-04-08T04:31:21;101461.50;;;5.98;64.31
71344;BME280;59146;43.850;25.948;2023-04-08T04:33:47;101608.38;;;6.98;64.22
71344;BME280;59146;43.850;25.948;2023-04-08T04:36:13;101598.06;;;6.95;64.40
71344;BME280;59146;43.850;25.948;2023-04-08T04:38:38;101560.88;;;6.64;64.22
71344;BME280;59146;43.850;25.948;2023-04-08T04:41:04;101582.19;;;6.75;64.15
71344;BME280;59146;43.850;25.948;2023-04-08T04:43:29;101453.66;;;6.01;63.73
71344;BME280;59146;43.850;25.948;2023-04-08T04:45:55;101591.19;;;6.94;63.67
71344;BME280;59146;43.850;25.948;2023-04-08T04:48:21;101560.44;;;6.79;63.79
71344;BME280;59146;43.850;25.948;2023-04-08T04:50:58;101566.50;;;6.80;63.53
71344;BME280;59146;43.850;25.948;2023-04-08T04:53:24;101588.44;;;6.99;63.59
71344;BME280;59146;43.850;25.948;2023-04-08T04:55:50;101557.84;;;6.79;63.76
71344;BME280;59146;43.850;25.948;2023-04-08T04:58:16;101651.53;;;7.33;63.78
71344;BME280;59146;43.850;25.948;2023-04-08T05:00:41;101620.94;;;7.13;63.73
71344;BME280;59146;43.850;25.948;2023-04-08T05:03:06;101629.78;;;7.06;64.18
71344;BME280;59146;43.850;25.948;2023-04-08T05:05:32;101642.91;;;7.33;64.39
71344;BME280;59146;43.850;25.948;2023-04-08T05:07:57;101589.31;;;6.99;63.64
71344;BME280;59146;43.850;25.948;2023-04-08T05:10:23;101631.59;;;7.34;64.12
71344;BME280;59146;43.850;25.948;2023-04-08T05:12:48;101622.09;;;7.33;64.02
71344;BME280;59146;43.850;25.948;2023-04-08T05:15:14;101569.41;;;7.28;63.35
71344;BME280;59146;43.850;25.948;2023-04-08T05:17:39;101577.59;;;7.43;62.44
71344;BME280;59146;43.850;25.948;2023-04-08T05:20:05;101631.69;;;7.60;63.23
71344;BME280;59146;43.850;25.948;2023-04-08T05:22:31;101619.69;;;7.56;63.44
71344;BME280;59146;43.850;25.948;2023-04-08T05:24:57;101493.16;;;7.01;62.46
71344;BME280;59146;43.850;25.948;2023-04-08T05:27:22;101579.69;;;7.86;61.60
71344;BME280;59146;43.850;25.948;2023-04-08T05:29:47;101620.56;;;7.82;62.41
71344;BME280;59146;43.850;25.948;2023-04-08T05:32:13;101621.09;;;7.92;62.25
71344;BME280;59146;43.850;25.948;2023-04-08T05:34:38;101648.13;;;8.42;60.94
71344;BME280;59146;43.850;25.948;2023-04-08T05:37:04;101606.66;;;8.36;60.96
71344;BME280;59146;43.850;25.948;2023-04-08T05:39:30;101435.38;;;7.47;60.01
71344;BME280;59146;43.850;25.948;2023-04-08T05:41:55;101563.97;;;8.15;60.53
71344;BME280;59146;43.850;25.948;2023-04-08T05:44:20;101628.94;;;8.94;59.46
71344;BME280;59146;43.850;25.948;2023-04-08T05:46:46;101634.81;;;9.23;58.49
71344;BME280;59146;43.850;25.948;2023-04-08T05:49:11;101578.22;;;8.56;59.01
71344;BME280;59146;43.850;25.948;2023-04-08T05:51:38;101649.84;;;8.92;59.33
71344;BME280;59146;43.850;25.948;2023-04-08T05:54:03;101567.59;;;8.85;59.04
71344;BME280;59146;43.850;25.948;2023-04-08T05:56:29;101636.50;;;9.69;56.72
71344;BME280;59146;43.850;25.948;2023-04-08T05:58:56;101633.66;;;9.75;56.29
71344;BME280;59146;43.850;25.948;2023-04-08T06:01:22;101587.25;;;9.17;57.90
71344;BME280;59146;43.850;25.948;2023-04-08T06:03:47;101549.34;;;8.85;58.03
71344;BME280;59146;43.850;25.948;2023-04-08T06:06:13;101650.66;;;10.07;56.83
71344;BME280;59146;43.850;25.948;2023-04-08T06:08:39;101581.44;;;10.18;54.97
71344;BME280;59146;43.850;25.948;2023-04-08T06:11:04;101627.94;;;10.51;53.89
71344;BME280;59146;43.850;25.948;2023-04-08T06:13:30;101632.56;;;10.24;55.30
71344;BME280;59146;43.850;25.948;2023-04-08T06:15:56;101645.31;;;10.31;55.29
71344;BME280;59146;43.850;25.948;2023-04-08T06:18:21;101593.91;;;10.52;53.34
71344;BME280;59146;43.850;25.948;2023-04-08T06:20:46;101652.28;;;10.91;53.52
71344;BME280;59146;43.850;25.948;2023-04-08T06:23:12;101600.03;;;10.11;54.15
71344;BME280;59146;43.850;25.948;2023-04-08T06:25:38;101660.38;;;10.25;55.40
71344;BME280;59146;43.850;25.948;2023-04-08T06:28:03;101638.09;;;10.16;56.25
71344;BME280;59146;43.850;25.948;2023-04-08T06:30:29;101630.69;;;10.27;55.53
71344;BME280;59146;43.850;25.948;2023-04-08T06:32:55;101556.38;;;10.14;54.29
71344;BME280;59146;43.850;25.948;2023-04-08T06:35:20;101656.16;;;10.63;54.91
71344;BME280;59146;43.850;25.948;2023-04-08T06:37:45;101646.22;;;10.91;53.64
71344;BME280;59146;43.850;25.948;2023-04-08T06:40:11;101623.66;;;11.27;51.85
71344;BME280;59146;43.850;25.948;2023-04-08T06:42:36;101474.69;;;10.51;51.10
71344;BME280;59146;43.850;25.948;2023-04-08T06:45:07;101646.78;;;11.73;51.51
71344;BME280;59146;43.850;25.948;2023-04-08T06:47:33;101595.13;;;12.13;49.00
71344;BME280;59146;43.850;25.948;2023-04-08T06:49:58;101653.84;;;12.60;48.21
71344;BME280;59146;43.850;25.948;2023-04-08T06:52:23;101651.09;;;12.46;47.70
71344;BME280;59146;43.850;25.948;2023-04-08T06:54:49;101586.00;;;11.68;48.46
71344;BME280;59146;43.850;25.948;2023-04-08T06:57:15;101528.66;;;10.89;49.46
71344;BME280;59146;43.850;25.948;2023-04-08T06:59:40;101596.78;;;11.42;49.31
71344;BME280;59146;43.850;25.948;2023-04-08T07:02:05;101585.56;;;11.94;48.62
71344;BME280;59146;43.850;25.948;2023-04-08T07:04:31;101585.22;;;11.66;48.53
71344;BME280;59146;43.850;25.948;2023-04-08T07:06:56;101651.72;;;11.79;49.30
71344;BME280;59146;43.850;25.948;2023-04-08T07:09:22;101624.09;;;11.18;51.23
71344;BME280;59146;43.850;25.948;2023-04-08T07:11:47;101640.44;;;11.60;50.73
71344;BME280;59146;43.850;25.948;2023-04-08T07:14:13;101617.72;;;11.24;50.72
71344;BME280;59146;43.850;25.948;2023-04-08T07:16:38;101619.94;;;10.94;51.44
71344;BME280;59146;43.850;25.948;2023-04-08T07:19:04;101592.94;;;10.93;51.33
71344;BME280;59146;43.850;25.948;2023-04-08T07:21:30;101616.88;;;11.60;50.37
71344;BME280;59146;43.850;25.948;2023-04-08T07:23:55;101614.00;;;11.83;49.85
71344;BME280;59146;43.850;25.948;2023-04-08T07:26:21;101643.16;;;11.01;51.66
71344;BME280;59146;43.850;25.948;2023-04-08T07:28:46;101659.41;;;11.08;52.72
71344;BME280;59146;43.850;25.948;2023-04-08T07:31:16;101653.78;;;10.77;52.84
71344;BME280;59146;43.850;25.948;2023-04-08T07:33:42;101597.00;;;10.21;54.28
71344;BME280;59146;43.850;25.948;2023-04-08T07:36:08;101634.84;;;10.52;53.61
71344;BME280;59146;43.850;25.948;2023-04-08T07:38:34;101660.16;;;10.71;53.77
71344;BME280;59146;43.850;25.948;2023-04-08T07:41:00;101599.78;;;10.37;53.41
71344;BME280;59146;43.850;25.948;2023-04-08T07:43:26;101554.28;;;10.22;53.40
71344;BME280;59146;43.850;25.948;2023-04-08T07:45:51;101591.63;;;10.24;54.14
71344;BME280;59146;43.850;25.948;2023-04-08T07:48:17;101692.81;;;10.81;54.10
71344;BME280;59146;43.850;25.948;2023-04-08T07:50:42;101608.06;;;10.87;52.84
71344;BME280;59146;43.850;25.948;2023-04-08T07:53:09;101664.59;;;11.47;52.48
71344;BME280;59146;43.850;25.948;2023-04-08T07:55:35;101616.44;;;11.32;51.96
71344;BME280;59146;43.850;25.948;2023-04-08T07:58:00;101627.09;;;11.09;52.95
71344;BME280;59146;43.850;25.948;2023-04-08T08:00:26;101653.47;;;11.23;53.02
71344;BME280;59146;43.850;25.948;2023-04-08T08:02:54;101631.56;;;11.44;51.92
71344;BME280;59146;43.850;25.948;2023-04-08T08:05:20;101608.97;;;11.43;51.80
71344;BME280;59146;43.850;25.948;2023-04-08T08:07:45;101605.69;;;11.57;51.75
71344;BME280;59146;43.850;25.948;2023-04-08T08:10:11;101564.56;;;11.23;51.82
71344;BME280;59146;43.850;25.948;2023-04-08T08:12:36;101614.88;;;11.65;51.49
71344;BME280;59146;43.850;25.948;2023-04-08T08:15:02;101601.72;;;11.85;51.12
71344;BME280;59146;43.850;25.948;2023-04-08T08:17:28;101670.53;;;12.23;50.80
71344;BME280;59146;43.850;25.948;2023-04-08T08:19:55;101633.31;;;12.00;50.76
71344;BME280;59146;43.850;25.948;2023-04-08T08:22:21;101584.75;;;11.57;51.77
71344;BME280;59146;43.850;25.948;2023-04-08T08:24:46;101665.09;;;11.92;51.88
71344;BME280;59146;43.850;25.948;2023-04-08T08:27:12;101629.44;;;12.25;51.05
71344;BME280;59146;43.850;25.948;2023-04-08T08:29:37;101651.09;;;12.46;49.94
71344;BME280;59146;43.850;25.948;2023-04-08T08:32:03;101667.06;;;12.06;51.25
71344;BME280;59146;43.850;25.948;2023-04-08T08:34:29;101615.84;;;11.81;51.59
71344;BME280;59146;43.850;25.948;2023-04-08T08:36:54;101657.25;;;12.45;50.54
71344;BME280;59146;43.850;25.948;2023-04-08T08:39:21;101663.97;;;12.50;50.63
71344;BME280;59146;43.850;25.948;2023-04-08T08:41:46;101593.41;;;11.94;50.99
71344;BME280;59146;43.850;25.948;2023-04-08T08:44:12;101608.50;;;12.07;51.19
71344;BME280;59146;43.850;25.948;2023-04-08T08:46:43;101661.34;;;12.33;51.16
71344;BME280;59146;43.850;25.948;2023-04-08T08:49:08;101672.66;;;12.68;50.20
71344;BME280;59146;43.850;25.948;2023-04-08T08:51:34;101631.81;;;12.47;50.72
71344;BME280;59146;43.850;25.948;2023-04-08T08:54:03;101621.31;;;12.47;51.51
71344;BME280;59146;43.850;25.948;2023-04-08T08:56:28;101651.66;;;13.19;50.32
71344;BME280;59146;43.850;25.948;2023-04-08T08:58:54;101579.28;;;13.15;48.76
71344;BME280;59146;43.850;25.948;2023-04-08T09:01:33;101673.09;;;13.90;48.80
71344;BME280;59146;43.850;25.948;2023-04-08T09:04:19;101606.66;;;13.42;50.62
71344;BME280;59146;43.850;25.948;2023-04-08T09:06:46;101641.91;;;13.37;49.78
71344;BME280;59146;43.850;25.948;2023-04-08T09:09:13;101640.66;;;13.60;50.50
71344;BME280;59146;43.850;25.948;2023-04-08T09:11:40;101670.22;;;13.47;50.28
71344;BME280;59146;43.850;25.948;2023-04-08T09:14:24;101632.44;;;13.34;50.49
71344;BME280;59146;43.850;25.948;2023-04-08T09:16:51;101602.94;;;13.14;51.33
71344;BME280;59146;43.850;25.948;2023-04-08T09:19:16;101674.72;;;13.13;51.84
71344;BME280;59146;43.850;25.948;2023-04-08T09:21:42;101671.22;;;13.29;51.31
71344;BME280;59146;43.850;25.948;2023-04-08T09:24:09;101662.59;;;13.59;51.47
71344;BME280;59146;43.850;25.948;2023-04-08T09:26:36;101589.69;;;13.32;50.93
71344;BME280;59146;43.850;25.948;2023-04-08T09:29:08;101641.13;;;13.68;50.91
71344;BME280;59146;43.850;25.948;2023-04-08T09:31:35;101642.06;;;13.01;52.37
71344;BME280;59146;43.850;25.948;2023-04-08T09:34:14;101506.59;;;12.69;52.31
71344;BME280;59146;43.850;25.948;2023-04-08T09:36:51;101632.28;;;13.69;51.10
71344;BME280;59146;43.850;25.948;2023-04-08T09:39:17;101640.03;;;14.01;50.41
71344;BME280;59146;43.850;25.948;2023-04-08T09:41:43;101608.53;;;14.01;48.71
71344;BME280;59146;43.850;25.948;2023-04-08T09:44:10;101647.00;;;13.87;50.71
71344;BME280;59146;43.850;25.948;2023-04-08T09:46:46;101631.78;;;13.46;51.49
71344;BME280;59146;43.850;25.948;2023-04-08T09:49:25;101678.94;;;14.10;50.46
71344;BME280;59146;43.850;25.948;2023-04-08T09:55:01;101666.66;;;14.11;49.46
71344;BME280;59146;43.850;25.948;2023-04-08T09:57:51;101664.03;;;14.11;48.94
71344;BME280;59146;43.850;25.948;2023-04-08T10:00:17;101623.91;;;13.78;49.55
71344;BME280;59146;43.850;25.948;2023-04-08T10:03:09;101646.38;;;13.68;50.21
71344;BME280;59146;43.850;25.948;2023-04-08T10:05:36;101661.03;;;14.17;49.44
71344;BME280;59146;43.850;25.948;2023-04-08T10:08:04;101615.88;;;14.10;48.68
71344;BME280;59146;43.850;25.948;2023-04-08T10:10:31;101630.03;;;14.53;48.32
71344;BME280;59146;43.850;25.948;2023-04-08T10:12:58;101637.44;;;14.47;47.69
71344;BME280;59146;43.850;25.948;2023-04-08T10:15:24;101671.50;;;14.48;48.29
71344;BME280;59146;43.850;25.948;2023-04-08T10:18:33;101611.31;;;13.53;50.01
71344;BME280;59146;43.850;25.948;2023-04-08T10:20:43;101666.00;;;13.92;50.94
71344;BME280;59146;43.850;25.948;2023-04-08T10:23:10;101568.25;;;13.55;49.52
71344;BME280;59146;43.850;25.948;2023-04-08T10:25:41;101593.84;;;13.68;49.93
71344;BME280;59146;43.850;25.948;2023-04-08T10:30:41;101659.50;;;14.28;50.01
71344;BME280;59146;43.850;25.948;2023-04-08T10:33:18;101662.63;;;14.35;48.91
71344;BME280;59146;43.850;25.948;2023-04-08T10:38:18;101585.13;;;14.26;47.32
71344;BME280;59146;43.850;25.948;2023-04-08T10:40:43;101584.22;;;14.71;47.04
71344;BME280;59146;43.850;25.948;2023-04-08T10:43:11;101617.50;;;14.86;45.68
71344;BME280;59146;43.850;25.948;2023-04-08T10:45:37;101611.38;;;14.72;45.94
71344;BME280;59146;43.850;25.948;2023-04-08T10:48:17;101621.91;;;14.72;46.69
71344;BME280;59146;43.850;25.948;2023-04-08T10:50:44;101571.94;;;14.72;47.27
71344;BME280;59146;43.850;25.948;2023-04-08T10:53:17;101580.47;;;14.89;45.65
71344;BME280;59146;43.850;25.948;2023-04-08T10:55:42;101641.94;;;15.02;46.25
71344;BME280;59146;43.850;25.948;2023-04-08T10:58:08;101567.59;;;14.71;45.46
71344;BME280;59146;43.850;25.948;2023-04-08T11:00:38;101617.13;;;14.92;46.57
71344;BME280;59146;43.850;25.948;2023-04-08T11:03:09;101586.75;;;14.59;47.00
71344;BME280;59146;43.850;25.948;2023-04-08T11:05:35;101628.66;;;14.76;45.62
71344;BME280;59146;43.850;25.948;2023-04-08T11:08:02;101624.63;;;14.98;45.77
71344;BME280;59146;43.850;25.948;2023-04-08T11:10:29;101589.50;;;14.85;46.63
71344;BME280;59146;43.850;25.948;2023-04-08T11:12:55;101589.78;;;14.95;45.68
71344;BME280;59146;43.850;25.948;2023-04-08T11:15:23;101540.56;;;14.55;45.03
71344;BME280;59146;43.850;25.948;2023-04-08T11:17:49;101569.75;;;14.64;44.70
71344;BME280;59146;43.850;25.948;2023-04-08T11:20:14;101597.38;;;14.71;45.55
71344;BME280;59146;43.850;25.948;2023-04-08T11:22:41;101563.38;;;14.24;46.57
71344;BME280;59146;43.850;25.948;2023-04-08T11:25:10;101546.63;;;14.41;46.27
71344;BME280;59146;43.850;25.948;2023-04-08T11:27:36;101557.00;;;14.72;44.47
71344;BME280;59146;43.850;25.948;2023-04-08T11:30:04;101478.75;;;14.33;45.24
71344;BME280;59146;43.850;25.948;2023-04-08T11:32:30;101617.75;;;15.38;45.32
71344;BME280;59146;43.850;25.948;2023-04-08T11:34:59;101537.28;;;14.65;46.72
71344;BME280;59146;43.850;25.948;2023-04-08T11:37:25;101517.03;;;14.23;46.37
71344;BME280;59146;43.850;25.948;2023-04-08T11:39:53;101612.22;;;15.14;44.97
71344;BME280;59146;43.850;25.948;2023-04-08T11:42:28;101602.81;;;15.39;45.46
71344;BME280;59146;43.850;25.948;2023-04-08T11:44:54;101591.25;;;15.27;46.16
71344;BME280;59146;43.850;25.948;2023-04-08T11:47:20;101552.66;;;15.13;45.30
71344;BME280;59146;43.850;25.948;2023-04-08T11:49:46;101506.38;;;14.69;46.10
71344;BME280;59146;43.850;25.948;2023-04-08T11:52:12;101461.19;;;14.76;44.22
71344;BME280;59146;43.850;25.948;2023-04-08T11:54:41;101567.69;;;15.66;45.22
71344;BME280;59146;43.850;25.948;2023-04-08T11:57:07;101506.69;;;15.60;43.75
71344;BME280;59146;43.850;25.948;2023-04-08T11:59:35;101503.22;;;15.72;43.40
71344;BME280;59146;43.850;25.948;2023-04-08T12:02:01;101573.25;;;15.88;43.83
71344;BME280;59146;43.850;25.948;2023-04-08T12:04:27;101527.53;;;15.22;43.71
71344;BME280;59146;43.850;25.948;2023-04-08T12:06:52;101520.63;;;15.07;44.22
71344;BME280;59146;43.850;25.948;2023-04-08T12:09:18;101535.66;;;15.05;43.78
71344;BME280;59146;43.850;25.948;2023-04-08T12:11:43;101568.63;;;15.10;44.29
71344;BME280;59146;43.850;25.948;2023-04-08T12:14:09;101396.78;;;14.27;43.41
71344;BME280;59146;43.850;25.948;2023-04-08T12:16:34;101509.75;;;14.85;43.52
71344;BME280;59146;43.850;25.948;2023-04-08T12:19:00;101500.38;;;14.53;44.27
71344;BME280;59146;43.850;25.948;2023-04-08T12:21:25;101531.00;;;14.68;43.31
71344;BME280;59146;43.850;25.948;2023-04-08T12:23:52;101516.13;;;14.67;43.52
71344;BME280;59146;43.850;25.948;2023-04-08T12:26:17;101522.91;;;14.57;42.99
71344;BME280;59146;43.850;25.948;2023-04-08T12:28:44;101503.25;;;14.62;43.80
71344;BME280;59146;43.850;25.948;2023-04-08T12:31:10;101539.72;;;14.82;45.12
71344;BME280;59146;43.850;25.948;2023-04-08T12:33:35;101529.81;;;15.00;43.72
71344;BME280;59146;43.850;25.948;2023-04-08T12:36:01;101542.19;;;15.26;43.71
71344;BME280;59146;43.850;25.948;2023-04-08T12:38:32;101561.53;;;15.53;44.40
71344;BME280;59146;43.850;25.948;2023-04-08T12:40:57;101505.25;;;15.28;44.67
71344;BME280;59146;43.850;25.948;2023-04-08T12:43:23;101509.50;;;15.02;44.53
71344;BME280;59146;43.850;25.948;2023-04-08T12:45:48;101538.47;;;15.57;42.83
71344;BME280;59146;43.850;25.948;2023-04-08T12:48:14;101511.34;;;15.81;42.82
71344;BME280;59146;43.850;25.948;2023-04-08T12:50:40;101546.31;;;16.10;41.79
71344;BME280;59146;43.850;25.948;2023-04-08T12:53:05;101503.91;;;15.35;42.54
71344;BME280;59146;43.850;25.948;2023-04-08T12:55:31;101500.13;;;15.39;43.74